Time;durP1;ratioP1;P1;durP2;ratioP2;P2;SDS_P1;SDS_P2;PMS_P1;PMS_P2;Temp;Humidity;BMP_temperature;BMP_pressure;BME280_temperature;BME280_humidity;BME280_pressure;Samples;Min_cycle;Max_cycle;Signal;HPM_P1;HPM_P2
2022/02/07 00:00:46;;;;;;;13.15;1.27;;;5.40;99.90;;;;;;5035238;28;20026;-39
2022/02/07 00:03:17;;;;;;;9.10;1.60;;;5.40;99.90;;;;;;5023583;28;20490;-37
2022/02/07 00:05:43;;;;;;;6.93;1.17;;;5.40;99.90;;;;;;5047527;28;20061;-36
2022/02/07 00:08:10;;;;;;;7.32;1.45;;;5.40;99.90;;;;;;5014033;28;20498;-36
2022/02/07 00:10:38;;;;;;;11.52;1.58;;;5.40;99.90;;;;;;5018959;28;20046;-38
2022/02/07 00:13:04;;;;;;;11.30;0.93;;;5.40;99.90;;;;;;5024616;28;20081;-37
2022/02/07 00:15:30;;;;;;;9.52;1.35;;;5.30;99.90;;;;;;5032377;28;20033;-39
2022/02/07 00:17:56;;;;;;;15.10;1.10;;;5.30;99.90;;;;;;5017595;28;20034;-45
2022/02/07 00:20:24;;;;;;;6.40;1.00;;;5.20;99.90;;;;;;5030690;28;20525;-41
2022/02/07 00:22:51;;;;;;;5.50;0.80;;;5.20;99.90;;;;;;5022275;28;20466;-36
2022/02/07 00:25:19;;;;;;;4.93;1.75;;;5.30;99.90;;;;;;5034899;28;20040;-37
2022/02/07 00:27:45;;;;;;;7.82;1.05;;;5.30;99.90;;;;;;5032985;28;20036;-36
2022/02/07 00:30:13;;;;;;;18.55;2.03;;;5.40;99.90;;;;;;5030238;28;20021;-43
2022/02/07 00:32:39;;;;;;;7.43;1.33;;;5.40;99.90;;;;;;5032028;28;20096;-38
2022/02/07 00:35:07;;;;;;;5.90;1.63;;;5.10;99.90;;;;;;5033859;28;20033;-36
2022/02/07 00:37:33;;;;;;;2.97;0.60;;;4.50;99.90;;;;;;5034686;28;20020;-38
2022/02/07 00:40:44;;;;;;;3.67;0.25;;;4.10;99.90;;;;;;5034733;28;20025;-38
2022/02/07 00:43:00;;;;;;;1.77;0.10;;;3.70;99.90;;;;;;5033004;28;20029;-37
2022/02/07 00:48:00;;;;;;;1.60;0.13;;;3.70;99.90;;;;;;5033490;28;20025;-37
2022/02/07 00:50:29;;;;;;;;;;;3.70;99.90;;;;;;5034541;28;20386;-36
2022/02/07 00:52:55;;;;;;;5.55;0.35;;;3.80;99.90;;;;;;5034165;28;19962;-36
2022/02/07 00:55:20;;;;;;;5.03;0.45;;;3.80;99.90;;;;;;5034178;28;20034;-39
2022/02/07 00:57:46;;;;;;;9.02;0.68;;;3.80;99.90;;;;;;5034150;28;20033;-36
2022/02/07 01:00:12;;;;;;;4.40;0.43;;;3.90;99.90;;;;;;5034047;28;20033;-38
2022/02/07 01:02:38;;;;;;;4.68;0.70;;;3.90;99.90;;;;;;5033980;28;20026;-36
2022/02/07 01:05:05;;;;;;;8.40;0.70;;;3.90;99.90;;;;;;5028347;28;20030;-36
2022/02/07 01:07:31;;;;;;;7.20;0.65;;;4.00;99.90;;;;;;5015175;28;20061;-37
2022/02/07 01:09:58;;;;;;;2.97;0.52;;;4.00;99.90;;;;;;5014116;28;20553;-55
2022/02/07 01:15:05;;;;;;;3.85;1.77;;;4.10;99.90;;;;;;5014404;28;20034;-36
2022/02/07 01:55:44;;;;;;;2.53;0.95;;;4.50;99.90;;;;;;5013743;28;20033;-38
2022/02/07 01:58:11;;;;;;;5.22;1.00;;;4.50;99.90;;;;;;5030283;28;20033;-38
2022/02/07 02:00:39;;;;;;;7.77;1.00;;;4.50;99.90;;;;;;5031424;28;20060;-37
2022/02/07 02:03:05;;;;;;;9.43;1.13;;;4.60;99.90;;;;;;5033232;28;20112;-35
2022/02/07 02:05:36;;;;;;;12.57;1.35;;;4.70;99.90;;;;;;5031612;28;20494;-35
2022/02/07 02:08:09;;;;;;;13.48;1.95;;;4.70;99.90;;;;;;5013502;28;20144;-37
2022/02/07 02:10:39;;;;;;;17.67;2.70;;;4.80;99.90;;;;;;5013524;28;20424;-37
2022/02/07 02:13:10;;;;;;;22.50;3.25;;;4.80;99.90;;;;;;5023637;28;20049;-37
2022/02/07 02:15:48;;;;;;;24.70;2.08;;;4.80;99.90;;;;;;5029173;28;20044;-38
2022/02/07 02:37:31;;;;;;;14.90;2.05;;;5.20;99.90;;;;;;5036911;28;20421;-36
2022/02/07 02:47:58;;;;;;;;;;;5.50;99.90;;;;;;5034014;28;20029;-36
2022/02/07 02:50:29;;;;;;;12.85;1.30;;;5.50;99.90;;;;;;5036654;28;19912;-37
2022/02/07 02:53:03;;;;;;;8.73;1.92;;;5.60;99.90;;;;;;5035586;28;20051;-39
2022/02/07 02:55:30;;;;;;;6.20;1.25;;;5.60;99.90;;;;;;5036489;28;20092;-38
2022/02/07 02:57:56;;;;;;;13.90;1.95;;;5.60;99.90;;;;;;5018717;28;20478;-38
2022/02/07 03:00:21;;;;;;;9.85;1.58;;;5.70;99.90;;;;;;5016551;28;20029;-38
2022/02/07 03:02:47;;;;;;;17.00;1.10;;;5.70;99.90;;;;;;5016458;28;20033;-36
2022/02/07 03:05:15;;;;;;;9.48;1.40;;;5.80;99.90;;;;;;5020522;28;20033;-35
2022/02/07 03:07:41;;;;;;;11.70;1.27;;;5.80;99.90;;;;;;5031408;28;20029;-38
2022/02/07 03:10:07;;;;;;;9.70;1.48;;;5.80;99.90;;;;;;5036206;28;20104;-39
2022/02/07 03:12:40;;;;;;;12.15;2.17;;;5.70;99.90;;;;;;5036161;28;20049;-37
2022/02/07 03:17:50;;;;;;;19.60;1.30;;;5.60;99.90;;;;;;5019875;28;20060;-38
2022/02/07 03:20:16;;;;;;;13.00;2.67;;;5.60;99.90;;;;;;5036305;28;20033;-44
2022/02/07 03:22:42;;;;;;;14.63;1.80;;;5.60;99.90;;;;;;5035184;28;20049;-37
2022/02/07 03:25:09;;;;;;;11.65;1.42;;;5.60;99.90;;;;;;5035987;28;20025;-37
2022/02/07 03:27:34;;;;;;;11.40;1.63;;;5.60;99.90;;;;;;5035892;28;20022;-37
2022/02/07 03:30:00;;;;;;;22.00;3.20;;;5.70;99.90;;;;;;5034595;28;20386;-36
2022/02/07 03:32:25;;;;;;;16.63;1.50;;;5.70;99.90;;;;;;5033165;28;20026;-38
2022/02/07 03:34:51;;;;;;;15.13;1.60;;;5.70;99.90;;;;;;5015969;28;20026;-36
2022/02/07 03:37:17;;;;;;;14.77;1.63;;;5.80;99.90;;;;;;5017458;28;20022;-36
2022/02/07 03:39:42;;;;;;;16.38;2.47;;;5.90;99.90;;;;;;5026847;28;20112;-37
2022/02/07 03:42:08;;;;;;;22.08;2.83;;;5.80;99.90;;;;;;5035599;28;20029;-37
2022/02/07 03:44:33;;;;;;;14.65;2.00;;;5.90;99.90;;;;;;5035493;28;20419;-37
2022/02/07 03:47:00;;;;;;;12.98;2.00;;;5.90;99.90;;;;;;5029879;28;20394;-46
2022/02/07 03:49:25;;;;;;;17.23;1.60;;;6.00;99.90;;;;;;5015660;28;20026;-45
2022/02/07 03:51:51;;;;;;;14.45;1.80;;;6.00;99.90;;;;;;5015619;28;20034;-50
2022/02/07 03:54:16;;;;;;;16.92;1.63;;;6.00;99.90;;;;;;5015683;28;20034;-37
2022/02/07 03:56:42;;;;;;;15.10;3.70;;;6.00;99.90;;;;;;5017944;28;20034;-35
2022/02/07 03:59:08;;;;;;;11.32;1.67;;;6.00;99.90;;;;;;5035481;28;20375;-36
2022/02/07 04:01:35;;;;;;;8.50;1.33;;;6.00;99.90;;;;;;5034555;28;20033;-41
2022/02/07 04:04:01;;;;;;;12.77;1.65;;;6.00;99.90;;;;;;5035374;28;20068;-60
2022/02/07 04:06:27;;;;;;;11.93;2.72;;;6.10;99.90;;;;;;5034705;28;20053;-43
2022/02/07 04:08:58;;;;;;;9.20;0.98;;;6.10;99.90;;;;;;5035449;28;20470;-37
2022/02/07 04:11:32;;;;;;;22.75;2.25;;;6.10;99.90;;;;;;5034956;28;20075;-36
2022/02/07 04:13:59;;;;;;;23.80;3.25;;;6.00;99.90;;;;;;5022483;28;20061;-41
2022/02/07 04:16:28;;;;;;;14.13;1.80;;;6.10;99.90;;;;;;5034081;28;20049;-37
2022/02/07 04:19:05;;;;;;;18.52;1.67;;;6.10;99.90;;;;;;5023460;28;20026;-35
2022/02/07 04:21:31;;;;;;;12.68;1.60;;;6.10;99.90;;;;;;5015278;28;20041;-40
2022/02/07 04:23:58;;;;;;;11.70;2.38;;;6.10;99.90;;;;;;5015203;28;20415;-36
2022/02/07 04:26:24;;;;;;;11.45;1.63;;;6.10;99.90;;;;;;5014956;28;20489;-36
2022/02/07 04:28:50;;;;;;;13.48;1.83;;;6.10;99.90;;;;;;5015205;28;20089;-37
2022/02/07 04:31:16;;;;;;;12.88;2.38;;;6.00;99.90;;;;;;5015143;28;20167;-35
2022/02/07 04:33:41;;;;;;;13.07;1.33;;;5.80;99.90;;;;;;5034165;28;20053;-42
2022/02/07 04:36:07;;;;;;;12.77;1.90;;;5.60;99.90;;;;;;5034623;28;20055;-38
2022/02/07 04:38:33;;;;;;;21.70;2.05;;;5.40;99.90;;;;;;5034444;28;20033;-36
2022/02/07 04:40:59;;;;;;;10.85;1.55;;;5.50;99.90;;;;;;5034629;28;20413;-38
2022/02/07 04:43:24;;;;;;;8.90;1.58;;;5.40;99.90;;;;;;5034377;28;20052;-37
2022/02/07 04:46:06;;;;;;;11.85;2.00;;;5.50;99.90;;;;;;5019179;28;20017;-54
2022/02/07 05:01:29;;;;;;;17.70;2.83;;;5.90;99.90;;;;;;5014695;28;20068;-38
2022/02/07 05:04:01;;;;;;;13.15;1.95;;;5.90;99.90;;;;;;5014474;28;20034;-37
2022/02/07 05:14:42;;;;;;;19.83;2.05;;;6.00;99.90;;;;;;5029724;28;20060;-39
2022/02/07 05:17:09;;;;;;;19.20;2.65;;;6.00;99.90;;;;;;5019006;28;20018;-38
2022/02/07 05:19:35;;;;;;;12.00;1.73;;;6.00;99.90;;;;;;5033919;28;20436;-37
2022/02/07 05:22:01;;;;;;;13.85;2.00;;;6.10;99.90;;;;;;5033687;28;20029;-37
2022/02/07 05:24:26;;;;;;;18.60;2.00;;;6.10;99.90;;;;;;5030077;28;20473;-53
2022/02/07 05:26:52;;;;;;;12.27;1.85;;;6.00;99.90;;;;;;5014884;28;20014;-42
2022/02/07 05:29:17;;;;;;;14.95;2.17;;;6.10;99.90;;;;;;5013848;28;20022;-37
2022/02/07 05:31:43;;;;;;;11.45;1.98;;;6.10;99.90;;;;;;5024050;28;20390;-37
2022/02/07 05:34:09;;;;;;;10.52;1.52;;;6.10;99.90;;;;;;5032608;28;20037;-37
2022/02/07 05:36:41;;;;;;;16.13;1.92;;;6.10;99.90;;;;;;5033450;28;20037;-37
2022/02/07 05:39:07;;;;;;;13.18;2.00;;;6.10;99.90;;;;;;5026479;28;20474;-37
2022/02/07 05:41:33;;;;;;;20.00;1.70;;;6.10;99.90;;;;;;5013657;28;20030;-39
2022/02/07 05:43:59;;;;;;;14.57;2.50;;;6.00;99.90;;;;;;5013977;28;20053;-38
2022/02/07 05:46:24;;;;;;;14.70;1.73;;;5.90;99.90;;;;;;5013612;28;20080;-37
2022/02/07 05:48:50;;;;;;;16.48;1.58;;;5.90;99.90;;;;;;5013528;28;20496;-38
2022/02/07 05:54:00;;;;;;;11.95;1.63;;;5.90;99.90;;;;;;5013976;28;20041;-34
2022/02/07 05:56:25;;;;;;;12.45;1.88;;;6.00;99.90;;;;;;5014774;28;20026;-38
2022/02/07 05:58:51;;;;;;;16.30;1.95;;;6.00;99.90;;;;;;5013442;28;20029;-39
2022/02/07 06:01:16;;;;;;;11.35;1.48;;;6.00;99.90;;;;;;5025133;28;20044;-37
2022/02/07 06:03:42;;;;;;;14.55;1.75;;;6.00;99.90;;;;;;5032778;28;20029;-39
2022/02/07 06:06:08;;;;;;;12.55;1.63;;;6.10;99.90;;;;;;5021145;28;20053;-50
2022/02/07 06:08:33;;;;;;;9.10;1.23;;;6.10;99.90;;;;;;5032134;28;20390;-46
2022/02/07 06:11:01;;;;;;;18.63;2.55;;;6.20;99.90;;;;;;5032477;28;20029;-37
2022/02/07 06:13:27;;;;;;;13.68;1.85;;;6.20;99.90;;;;;;5032257;28;20049;-37
2022/02/07 06:15:53;;;;;;;20.55;2.13;;;6.20;99.90;;;;;;5016905;28;20441;-47
2022/02/07 06:18:20;;;;;;;16.83;2.53;;;6.30;99.90;;;;;;5013352;28;20100;-36
2022/02/07 06:20:48;;;;;;;12.30;1.45;;;6.30;99.90;;;;;;5013351;28;20026;-37
2022/02/07 06:23:14;;;;;;;14.45;3.15;;;6.30;99.90;;;;;;5013024;28;20022;-37
2022/02/07 06:25:39;;;;;;;11.65;2.10;;;6.30;99.90;;;;;;5013019;28;20030;-38
2022/02/07 06:28:05;;;;;;;13.00;1.58;;;6.30;99.90;;;;;;5014432;28;20022;-38
2022/02/07 06:30:30;;;;;;;5.50;1.58;;;6.30;99.90;;;;;;5013109;28;20026;-39
2022/02/07 06:32:56;;;;;;;26.27;2.13;;;6.30;99.90;;;;;;5012993;28;20041;-39
2022/02/07 06:35:22;;;;;;;18.25;3.90;;;6.30;99.90;;;;;;5012971;28;20483;-37
2022/02/07 06:37:47;;;;;;;28.27;2.45;;;6.30;99.90;;;;;;5024603;28;20025;-39
2022/02/07 06:40:13;;;;;;;30.15;3.40;;;6.20;99.90;;;;;;5032965;28;20426;-37
2022/02/07 06:42:39;;;;;;;16.10;2.67;;;6.10;99.90;;;;;;5032637;28;20034;-39
2022/02/07 06:45:05;;;;;;;18.05;2.85;;;6.10;99.90;;;;;;5032612;28;20018;-43
2022/02/07 06:47:31;;;;;;;19.02;3.50;;;6.10;99.90;;;;;;5026063;28;20014;-38
2022/02/07 06:49:56;;;;;;;14.80;2.97;;;6.10;99.90;;;;;;5012859;28;20083;-40
2022/02/07 06:52:22;;;;;;;13.82;2.20;;;6.10;99.90;;;;;;5012808;28;20034;-40
2022/02/07 06:54:48;;;;;;;16.60;1.67;;;6.00;99.90;;;;;;5021134;28;20067;-39
2022/02/07 06:57:15;;;;;;;14.40;1.45;;;6.00;99.90;;;;;;5025309;28;20028;-39
2022/02/07 06:59:42;;;;;;;24.30;2.30;;;6.00;99.90;;;;;;5027995;28;20034;-40
2022/02/07 07:02:11;;;;;;;18.30;2.15;;;5.90;99.90;;;;;;5013092;28;20477;-40
2022/02/07 07:04:36;;;;;;;19.50;2.28;;;5.90;99.90;;;;;;5012876;28;20037;-43
2022/02/07 07:07:02;;;;;;;14.65;1.67;;;5.80;99.90;;;;;;5013054;28;20022;-38
2022/02/07 07:09:29;;;;;;;26.30;2.67;;;5.90;99.90;;;;;;5012509;28;20041;-37
2022/02/07 07:12:02;;;;;;;22.58;2.85;;;5.90;99.90;;;;;;5017788;28;20104;-39
2022/02/07 07:14:40;;;;;;;24.92;3.13;;;6.00;99.90;;;;;;5023508;28;20550;-36
2022/02/07 07:17:06;;;;;;;18.38;2.85;;;6.00;99.90;;;;;;5029525;28;20033;-37
2022/02/07 07:19:33;;;;;;;17.75;1.85;;;6.10;99.90;;;;;;5032167;28;20029;-38
2022/02/07 07:21:59;;;;;;;28.90;1.95;;;6.10;99.90;;;;;;5034225;28;20512;-38
2022/02/07 07:24:26;;;;;;;11.77;2.28;;;6.10;99.90;;;;;;5035705;28;20041;-39
2022/02/07 07:26:51;;;;;;;18.65;1.92;;;6.10;99.90;;;;;;5035177;28;20037;-40
2022/02/07 07:29:22;;;;;;;16.15;2.08;;;6.10;99.90;;;;;;5035913;28;20029;-40
2022/02/07 07:31:56;;;;;;;17.38;2.72;;;6.10;99.90;;;;;;5034552;28;20055;-38
2022/02/07 07:34:22;;;;;;;26.92;2.63;;;6.10;99.90;;;;;;5035518;28;20033;-37
2022/02/07 07:36:48;;;;;;;8.57;2.05;;;6.20;99.90;;;;;;5035349;28;20026;-38
2022/02/07 07:39:15;;;;;;;12.60;2.88;;;6.20;99.90;;;;;;5035881;28;20075;-39
2022/02/07 07:41:43;;;;;;;16.87;1.90;;;6.20;99.90;;;;;;5034282;28;20108;-38
2022/02/07 07:44:09;;;;;;;16.83;2.92;;;6.20;99.90;;;;;;5035673;28;20424;-38
2022/02/07 07:46:35;;;;;;;9.68;2.15;;;6.30;99.90;;;;;;5030768;28;20025;-44
2022/02/07 07:49:41;;;;;;;14.70;1.88;;;6.30;99.90;;;;;;5033055;28;20034;-40
2022/02/07 07:51:58;;;;;;;13.85;2.60;;;6.30;99.90;;;;;;5033989;28;20033;-39
2022/02/07 07:54:48;;;;;;;28.55;2.33;;;6.30;99.90;;;;;;5035360;28;20079;-39
2022/02/07 08:02:46;;;;;;;14.25;2.22;;;6.30;99.90;;;;;;5031298;28;20410;-39
2022/02/07 08:05:42;;;;;;;19.73;3.20;;;6.30;99.90;;;;;;5035158;28;20103;-38
2022/02/07 08:10:53;;;;;;;13.40;2.03;;;6.30;99.90;;;;;;5035213;28;20055;-40
2022/02/07 08:13:19;;;;;;;15.73;2.35;;;6.40;99.90;;;;;;5034498;28;20133;-40
2022/02/07 08:15:45;;;;;;;28.35;4.80;;;6.40;99.90;;;;;;5034993;28;20082;-38
2022/02/07 08:18:12;;;;;;;18.05;1.85;;;6.30;99.90;;;;;;5035264;28;20022;-39
2022/02/07 08:20:38;;;;;;;12.75;1.95;;;6.40;99.90;;;;;;5033734;28;20059;-39
2022/02/07 08:23:06;;;;;;;9.38;2.30;;;6.60;99.90;;;;;;5015067;28;20030;-38
2022/02/07 08:25:31;;;;;;;18.42;1.92;;;6.60;99.90;;;;;;5025275;28;20023;-37
2022/02/07 08:27:57;;;;;;;15.35;4.43;;;6.60;99.90;;;;;;5034216;28;20033;-37
2022/02/07 08:30:22;;;;;;;19.38;1.98;;;6.60;99.90;;;;;;5033776;28;20021;-38
2022/02/07 08:32:48;;;;;;;23.90;2.92;;;6.60;99.90;;;;;;5033448;28;20026;-38
2022/02/07 08:35:14;;;;;;;26.33;2.75;;;6.60;99.90;;;;;;5034729;28;20034;-38
2022/02/07 08:37:39;;;;;;;22.65;4.07;;;6.60;99.90;;;;;;5024178;28;20026;-39
2022/02/07 08:40:06;;;;;;;10.57;2.45;;;6.60;99.90;;;;;;5019567;28;20029;-45
2022/02/07 08:42:31;;;;;;;16.65;1.88;;;6.60;99.90;;;;;;5014669;28;20112;-38
2022/02/07 08:44:57;;;;;;;18.15;2.47;;;6.70;99.90;;;;;;5016375;28;20117;-37
2022/02/07 08:47:23;;;;;;;12.43;2.45;;;6.80;99.90;;;;;;5030597;28;20139;-37
2022/02/07 08:49:49;;;;;;;13.73;1.95;;;6.80;99.90;;;;;;5022626;28;20049;-38
2022/02/07 08:52:16;;;;;;;19.80;2.33;;;6.90;99.90;;;;;;5018096;28;20052;-38
2022/02/07 08:54:42;;;;;;;13.30;1.70;;;6.90;99.90;;;;;;5034146;28;20121;-38
2022/02/07 08:57:19;;;;;;;16.23;2.70;;;7.10;99.90;;;;;;5034219;28;20108;-46
2022/02/07 09:00:03;;;;;;;11.48;2.60;;;7.20;99.90;;;;;;5034312;28;20532;-39
2022/02/07 09:05:19;;;;;;;12.52;1.98;;;7.30;99.90;;;;;;5033319;28;20033;-37
2022/02/07 09:07:53;;;;;;;9.25;1.88;;;7.20;99.90;;;;;;5034041;28;20079;-41
2022/02/07 09:10:19;;;;;;;23.08;2.38;;;7.10;99.90;;;;;;5034133;28;20377;-39
2022/02/07 09:12:47;;;;;;;14.40;1.85;;;7.20;99.90;;;;;;5033007;28;20100;-39
2022/02/07 09:15:32;;;;;;;13.32;2.28;;;7.20;99.90;;;;;;5033893;28;20029;-39
2022/02/07 09:18:04;;;;;;;15.38;2.63;;;7.10;99.90;;;;;;5032341;28;20389;-39
2022/02/07 09:20:31;;;;;;;19.02;1.67;;;7.10;99.90;;;;;;5024429;28;20075;-40
2022/02/07 09:22:57;;;;;;;18.48;1.85;;;7.10;99.90;;;;;;5032165;28;20533;-39
2022/02/07 09:25:23;;;;;;;23.08;3.30;;;7.10;99.90;;;;;;5033361;28;20109;-44
2022/02/07 09:27:48;;;;;;;12.93;2.05;;;7.20;99.90;;;;;;5019577;28;20034;-38
2022/02/07 09:30:14;;;;;;;17.75;3.20;;;7.20;99.90;;;;;;5022670;28;20033;-37
2022/02/07 09:32:39;;;;;;;9.75;1.83;;;7.20;99.90;;;;;;5030244;28;20084;-37
2022/02/07 09:35:05;;;;;;;21.15;1.48;;;7.40;99.90;;;;;;5026245;28;20100;-39
2022/02/07 09:37:35;;;;;;;17.75;2.22;;;7.30;99.90;;;;;;5032726;28;20473;-40
2022/02/07 09:40:00;;;;;;;18.45;2.80;;;7.30;99.90;;;;;;5033408;28;20458;-40
2022/02/07 09:42:27;;;;;;;13.70;1.98;;;7.40;99.90;;;;;;5033262;28;20071;-39
2022/02/07 09:44:55;;;;;;;16.40;2.28;;;7.30;99.90;;;;;;5032525;28;20036;-39
2022/02/07 09:47:23;;;;;;;11.63;1.55;;;7.40;99.90;;;;;;5028604;28;20475;-40
2022/02/07 09:49:48;;;;;;;12.52;1.63;;;7.40;99.90;;;;;;5033374;28;20474;-66
2022/02/07 09:52:14;;;;;;;19.77;2.10;;;7.50;99.90;;;;;;5033098;28;20036;-39
2022/02/07 09:54:40;;;;;;;16.65;2.33;;;7.60;99.90;;;;;;5033110;28;20033;-37
2022/02/07 09:57:07;;;;;;;11.55;2.47;;;7.60;99.90;;;;;;5026083;28;20422;-37
2022/02/07 09:59:34;;;;;;;11.77;2.38;;;7.60;99.90;;;;;;5031815;28;20482;-39
2022/02/07 10:02:03;;;;;;;14.65;1.63;;;7.60;99.90;;;;;;5028555;28;20017;-39
2022/02/07 10:04:39;;;;;;;11.45;1.58;;;7.60;99.90;;;;;;5029367;28;20092;-43
2022/02/07 10:15:05;;;;;;;12.00;1.45;;;7.70;99.90;;;;;;5013768;28;20052;-38
2022/02/07 10:47:21;;;;;;;14.18;2.03;;;8.40;99.90;;;;;;5031352;28;20030;-40
2022/02/07 10:50:05;;;;;;;9.85;1.63;;;8.50;99.90;;;;;;5032576;28;20018;-40
2022/02/07 10:52:50;;;;;;;13.63;1.55;;;8.50;99.90;;;;;;5031139;28;20124;-40
2022/02/07 10:55:34;;;;;;;10.88;2.15;;;8.60;99.90;;;;;;5032405;28;20025;-38
2022/02/07 10:58:03;;;;;;;8.05;1.33;;;8.60;99.90;;;;;;5036425;28;20478;-39
2022/02/07 11:00:36;;;;;;;13.20;2.60;;;8.40;99.90;;;;;;5027861;28;20379;-38
2022/02/07 11:03:40;;;;;;;12.85;2.03;;;8.20;99.90;;;;;;5016892;28;20157;-39
2022/02/07 11:06:00;;;;;;;16.83;1.73;;;7.90;99.90;;;;;;5020500;28;20025;-36
2022/02/07 11:08:47;;;;;;;19.13;2.13;;;7.80;99.90;;;;;;5035523;28;20385;-42
2022/02/07 11:11:39;;;;;;;15.38;2.35;;;7.90;99.90;;;;;;5026604;28;20116;-40
2022/02/07 11:14:43;;;;;;;6.78;1.30;;;8.00;99.90;;;;;;5035732;28;20100;-39
2022/02/07 11:25:04;;;;;;;14.40;1.67;;;8.20;99.90;;;;;;5035863;28;20505;-61
2022/02/07 11:27:30;;;;;;;10.00;1.40;;;8.30;99.90;;;;;;5028969;28;20045;-39
2022/02/07 11:29:56;;;;;;;21.08;4.45;;;8.30;99.90;;;;;;5023630;28;20475;-50
2022/02/07 11:32:43;;;;;;;8.90;1.65;;;8.10;99.90;;;;;;5035635;28;20018;-39
2022/02/07 11:35:14;;;;;;;6.25;1.40;;;8.20;99.90;;;;;;5014554;28;20042;-40
2022/02/07 11:37:41;;;;;;;6.90;1.48;;;8.20;99.90;;;;;;5030651;28;20567;-51
2022/02/07 11:40:28;;;;;;;18.88;2.38;;;8.30;99.90;;;;;;5034191;28;20025;-38
2022/02/07 11:43:10;;;;;;;31.00;3.25;;;8.20;99.90;;;;;;5035448;28;20104;-40
2022/02/07 11:46:03;;;;;;;19.33;2.63;;;8.10;99.90;;;;;;5034354;28;20504;-40
2022/02/07 11:48:35;;;;;;;16.38;1.50;;;8.20;99.90;;;;;;5020989;28;20520;-39
2022/02/07 11:51:13;;;;;;;15.20;2.50;;;8.10;99.90;;;;;;5032468;28;20025;-40
2022/02/07 11:53:46;;;;;;;;;;;8.00;99.90;;;;;;5035276;28;20029;-39
2022/02/07 11:56:54;;;;;;;11.25;1.20;;;7.90;99.90;;;;;;5025113;28;19917;-38
2022/02/07 11:59:28;;;;;;;12.35;1.33;;;7.90;99.90;;;;;;5033059;28;20041;-57
2022/02/07 12:02:04;;;;;;;19.05;2.08;;;8.00;99.90;;;;;;5033485;28;20033;-69
2022/02/07 12:04:41;;;;;;;21.27;1.80;;;8.10;99.90;;;;;;5031219;28;20037;-40
2022/02/07 12:07:20;;;;;;;11.50;1.33;;;8.20;99.90;;;;;;5025677;28;20496;-40
2022/02/07 12:12:39;;;;;;;11.15;1.85;;;8.40;99.90;;;;;;5028246;28;20033;-44
2022/02/07 12:15:07;;;;;;;9.50;1.75;;;8.50;99.90;;;;;;5026839;28;20056;-39
2022/02/07 12:17:56;;;;;;;10.68;1.58;;;8.50;99.90;;;;;;5026357;28;20025;-41
2022/02/07 12:20:23;;;;;;;14.00;1.35;;;8.50;99.90;;;;;;5030504;28;20022;-40
2022/02/07 12:22:57;;;;;;;10.30;1.65;;;8.80;99.90;;;;;;5025300;28;20029;-39
2022/02/07 12:28:17;;;;;;;17.90;3.78;;;9.00;99.90;;;;;;5020686;28;20041;-42
2022/02/07 12:33:32;;;;;;;13.82;2.08;;;9.40;99.90;;;;;;5016519;28;20524;-42
2022/02/07 12:35:58;;;;;;;13.25;1.20;;;9.30;99.90;;;;;;5023338;28;20025;-40
2022/02/07 12:38:30;;;;;;;8.27;1.00;;;9.10;99.90;;;;;;5026420;28;20100;-40
2022/02/07 12:41:00;;;;;;;8.65;1.02;;;9.10;99.90;;;;;;5032654;28;20383;-49
2022/02/07 12:43:25;;;;;;;8.75;1.75;;;9.10;99.90;;;;;;5029768;28;20022;-40
2022/02/07 12:45:59;;;;;;;8.77;1.10;;;9.00;99.90;;;;;;5033344;28;20435;-42
2022/02/07 12:48:33;;;;;;;6.45;1.38;;;9.00;99.90;;;;;;5017996;28;20029;-40
2022/02/07 12:50:59;;;;;;;7.05;0.85;;;9.00;99.90;;;;;;5025241;28;20108;-39
2022/02/07 12:53:27;;;;;;;8.20;1.52;;;8.80;99.90;;;;;;5022097;28;20056;-41
2022/02/07 12:55:56;;;;;;;12.75;1.67;;;8.50;99.90;;;;;;5017127;28;20034;-39
2022/02/07 12:58:25;;;;;;;8.75;1.35;;;8.30;99.90;;;;;;5025284;28;20028;-39
2022/02/07 13:00:52;;;;;;;4.63;1.30;;;8.30;99.90;;;;;;5024357;28;20029;-38
2022/02/07 13:03:18;;;;;;;4.88;1.17;;;8.30;99.90;;;;;;5022751;28;20032;-39
2022/02/07 13:05:45;;;;;;;13.88;1.52;;;8.30;99.90;;;;;;5025935;28;20029;-43
2022/02/07 13:08:16;;;;;;;4.32;0.88;;;8.40;99.90;;;;;;5031511;28;20030;-38
2022/02/07 13:10:50;;;;;;;4.07;1.67;;;8.50;99.90;;;;;;5026203;28;20038;-42
2022/02/07 13:15:50;;;;;;;9.07;1.48;;;8.80;99.90;;;;;;5026140;28;20025;-40
2022/02/07 13:18:19;;;;;;;14.40;1.67;;;8.80;99.90;;;;;;5022815;28;20033;-40
2022/02/07 13:20:45;;;;;;;10.93;1.92;;;8.90;99.90;;;;;;5024149;28;20029;-40
2022/02/07 13:23:15;;;;;;;14.35;2.17;;;8.90;99.90;;;;;;5023720;28;20037;-47
2022/02/07 13:25:54;;;;;;;7.90;1.10;;;8.90;99.90;;;;;;5027047;28;20090;-56
2022/02/07 13:28:22;;;;;;;8.65;0.90;;;8.80;99.90;;;;;;5019284;28;20112;-48
2022/02/07 13:30:50;;;;;;;12.25;0.95;;;8.80;99.90;;;;;;5025064;28;20032;-40
2022/02/07 13:33:17;;;;;;;7.82;1.48;;;8.70;99.90;;;;;;5018965;28;20021;-39
2022/02/07 13:35:46;;;;;;;10.98;1.08;;;8.60;99.90;;;;;;5020241;28;20089;-39
2022/02/07 13:38:14;;;;;;;8.18;1.45;;;8.50;99.90;;;;;;5027592;28;20508;-40
2022/02/07 13:40:52;;;;;;;10.02;1.17;;;8.60;99.90;;;;;;5029047;28;20040;-40
2022/02/07 13:43:27;;;;;;;4.88;0.47;;;8.60;99.90;;;;;;5030344;28;20057;-38
2022/02/07 13:45:55;;;;;;;7.13;1.02;;;8.70;99.90;;;;;;5027913;28;20501;-40
2022/02/07 13:48:22;;;;;;;;;;;8.80;99.90;;;;;;5028347;28;20021;-41
2022/02/07 13:50:50;;;;;;;4.15;0.98;;;8.80;99.90;;;;;;5031159;28;20273;-39
2022/02/07 13:53:18;;;;;;;4.65;1.77;;;8.80;99.90;;;;;;5031691;28;20033;-38
2022/02/07 13:55:55;;;;;;;3.35;0.95;;;8.60;99.90;;;;;;5033258;28;20029;-39
2022/02/07 13:58:34;;;;;;;10.10;1.20;;;8.60;99.90;;;;;;5020626;28;20049;-39
2022/02/07 14:01:14;;;;;;;9.40;0.82;;;8.50;99.90;;;;;;5031895;28;20028;-38
2022/02/07 14:03:47;;;;;;;8.25;1.52;;;8.60;99.90;;;;;;5025758;28;20111;-38
2022/02/07 14:06:14;;;;;;;7.18;0.90;;;8.50;99.90;;;;;;5013453;28;20075;-40
2022/02/07 14:08:57;;;;;;;12.00;1.15;;;8.60;99.90;;;;;;5013829;28;20038;-47
2022/02/07 14:11:30;;;;;;;5.22;0.63;;;8.40;99.90;;;;;;5028065;28;20470;-40
2022/02/07 14:14:02;;;;;;;11.05;1.20;;;8.40;99.90;;;;;;5015118;28;20103;-47
2022/02/07 14:16:29;;;;;;;3.42;0.93;;;8.50;99.90;;;;;;5017379;28;20141;-39
2022/02/07 14:18:55;;;;;;;6.22;0.90;;;8.50;99.90;;;;;;5033073;28;20025;-39
2022/02/07 14:21:24;;;;;;;8.27;0.93;;;8.70;99.90;;;;;;5032874;28;20029;-38
2022/02/07 14:23:52;;;;;;;6.22;0.82;;;8.80;99.90;;;;;;5019138;28;20379;-40
2022/02/07 14:26:20;;;;;;;11.73;1.75;;;8.90;99.90;;;;;;5030267;28;20021;-47
2022/02/07 14:28:51;;;;;;;8.38;1.23;;;9.00;99.90;;;;;;5028139;28;20502;-40
2022/02/07 14:31:17;;;;;;;6.13;1.10;;;9.00;99.90;;;;;;5020714;28;20025;-38
2022/02/07 14:33:43;;;;;;;10.57;1.15;;;9.10;99.90;;;;;;5023498;28;20505;-38
2022/02/07 14:36:09;;;;;;;8.30;0.80;;;9.00;99.90;;;;;;5020432;28;20021;-40
2022/02/07 14:38:35;;;;;;;5.82;0.95;;;8.90;99.90;;;;;;5021462;28;20028;-39
2022/02/07 14:41:01;;;;;;;5.70;0.70;;;8.80;99.90;;;;;;5020762;28;20029;-34
2022/02/07 14:43:32;;;;;;;4.68;0.90;;;8.90;99.90;;;;;;5024725;28;20474;-39
2022/02/07 14:48:37;;;;;;;4.20;1.90;;;9.00;99.90;;;;;;5028880;28;20026;-37
2022/02/07 14:51:06;;;;;;;8.65;1.08;;;9.00;99.90;;;;;;5028108;28;20541;-36
2022/02/07 14:53:33;;;;;;;11.38;1.23;;;9.00;99.90;;;;;;5025850;28;20496;-38
2022/02/07 14:55:59;;;;;;;10.43;1.30;;;9.00;99.90;;;;;;5020496;28;20029;-39
2022/02/07 14:58:25;;;;;;;5.53;0.80;;;8.90;99.90;;;;;;5030108;28;20025;-41
2022/02/07 15:00:52;;;;;;;1.75;0.75;;;9.00;99.90;;;;;;5030019;28;20421;-38
2022/02/07 15:03:20;;;;;;;14.05;1.48;;;8.90;99.90;;;;;;5028906;28;20032;-40
2022/02/07 15:05:47;;;;;;;17.27;1.95;;;9.00;99.90;;;;;;5018739;28;20029;-38
2022/02/07 15:08:12;;;;;;;8.03;1.23;;;9.00;99.90;;;;;;5021878;28;20018;-37
2022/02/07 15:10:38;;;;;;;6.82;0.98;;;9.00;99.90;;;;;;5018733;28;20034;-41
2022/02/07 15:13:06;;;;;;;9.95;1.08;;;9.00;99.90;;;;;;5028155;28;20505;-37
2022/02/07 15:15:32;;;;;;;;;;;9.00;99.90;;;;;;5019655;28;20045;-40
2022/02/07 15:18:02;;;;;;;10.55;0.98;;;9.00;99.90;;;;;;5026335;28;20110;-40
2022/02/07 15:20:28;;;;;;;6.32;2.33;;;9.00;99.90;;;;;;5025954;28;20492;-41
2022/02/07 15:22:54;;;;;;;6.13;2.28;;;8.90;99.90;;;;;;5032222;28;20083;-40
2022/02/07 15:25:29;;;;;;;3.28;1.58;;;9.00;99.90;;;;;;5031779;28;20026;-41
2022/02/07 15:27:58;;;;;;;8.52;0.80;;;9.10;99.90;;;;;;5022503;28;20033;-39
2022/02/07 15:30:25;;;;;;;8.27;1.30;;;9.30;99.90;;;;;;5003981;28;20116;-41
2022/02/07 15:32:52;;;;;;;7.67;1.40;;;9.20;99.90;;;;;;5023554;28;20474;-55
2022/02/07 15:35:19;;;;;;;4.45;0.80;;;9.30;99.90;;;;;;5020409;28;20096;-39
2022/02/07 15:37:45;;;;;;;7.15;1.10;;;9.40;99.90;;;;;;5022261;28;20364;-39
2022/02/07 15:40:12;;;;;;;7.22;0.75;;;9.40;99.90;;;;;;5022431;28;20033;-40
2022/02/07 15:42:38;;;;;;;6.20;1.05;;;9.30;99.90;;;;;;5026496;28;20102;-40
2022/02/07 15:45:04;;;;;;;7.72;2.03;;;9.30;99.90;;;;;;5026752;28;20484;-39
2022/02/07 15:47:34;;;;;;;8.57;1.30;;;9.10;99.90;;;;;;5027602;28;20029;-35
2022/02/07 15:50:06;;;;;;;2.45;0.77;;;9.10;99.90;;;;;;5027831;28;20347;-39